sensor_id;sensor_type;location;lat;lon;timestamp;P1;durP1;ratioP1;P2;durP2;ratioP2
6438;SDS011;3252;52.540;13.290;2022-10-16T00:00:28;2.07;;;1.40;;
6438;SDS011;3252;52.540;13.290;2022-10-16T00:02:30;2.17;;;1.50;;
6438;SDS011;3252;52.540;13.290;2022-10-16T00:04:32;2.20;;;1.50;;
6438;SDS011;3252;52.540;13.290;2022-10-16T00:06:35;2.53;;;1.50;;
6438;SDS011;3252;52.540;13.290;2022-10-16T00:08:38;1.30;;;1.20;;
6438;SDS011;3252;52.540;13.290;2022-10-16T00:10:41;2.27;;;1.57;;
6438;SDS011;3252;52.540;13.290;2022-10-16T00:12:43;4.13;;;1.50;;
6438;SDS011;3252;52.540;13.290;2022-10-16T00:14:45;2.87;;;1.47;;
6438;SDS011;3252;52.540;13.290;2022-10-16T00:16:46;1.57;;;1.10;;
6438;SDS011;3252;52.540;13.290;2022-10-16T00:18:49;1.67;;;1.37;;
6438;SDS011;3252;52.540;13.290;2022-10-16T00:20:51;1.70;;;1.50;;
6438;SDS011;3252;52.540;13.290;2022-10-16T00:23:13;3.93;;;1.67;;
6438;SDS011;3252;52.540;13.290;2022-10-16T00:25:15;1.90;;;1.50;;
6438;SDS011;3252;52.540;13.290;2022-10-16T00:27:17;1.90;;;1.33;;
6438;SDS011;3252;52.540;13.290;2022-10-16T00:29:19;4.37;;;1.43;;
6438;SDS011;3252;52.540;13.290;2022-10-16T00:31:21;1.80;;;1.20;;
6438;SDS011;3252;52.540;13.290;2022-10-16T00:33:24;2.63;;;1.23;;
6438;SDS011;3252;52.540;13.290;2022-10-16T00:35:26;1.60;;;1.20;;
6438;SDS011;3252;52.540;13.290;2022-10-16T00:37:29;4.77;;;1.40;;
6438;SDS011;3252;52.540;13.290;2022-10-16T00:39:32;3.83;;;1.33;;
6438;SDS011;3252;52.540;13.290;2022-10-16T00:41:34;1.60;;;1.40;;
6438;SDS011;3252;52.540;13.290;2022-10-16T00:43:38;4.80;;;1.33;;
6438;SDS011;3252;52.540;13.290;2022-10-16T00:45:41;2.70;;;1.20;;
6438;SDS011;3252;52.540;13.290;2022-10-16T00:47:43;2.27;;;1.20;;
6438;SDS011;3252;52.540;13.290;2022-10-16T00:49:50;3.73;;;1.60;;
6438;SDS011;3252;52.540;13.290;2022-10-16T00:51:54;4.20;;;1.30;;
6438;SDS011;3252;52.540;13.290;2022-10-16T00:53:56;1.53;;;1.10;;
6438;SDS011;3252;52.540;13.290;2022-10-16T00:56:00;1.60;;;1.33;;
6438;SDS011;3252;52.540;13.290;2022-10-16T00:58:02;4.80;;;1.30;;
6438;SDS011;3252;52.540;13.290;2022-10-16T01:00:05;3.00;;;1.23;;
6438;SDS011;3252;52.540;13.290;2022-10-16T01:02:11;1.97;;;1.27;;
6438;SDS011;3252;52.540;13.290;2022-10-16T01:04:13;2.13;;;1.30;;
6438;SDS011;3252;52.540;13.290;2022-10-16T01:06:19;2.70;;;1.20;;
6438;SDS011;3252;52.540;13.290;2022-10-16T01:08:26;2.63;;;1.20;;
6438;SDS011;3252;52.540;13.290;2022-10-16T01:10:35;2.03;;;1.13;;
6438;SDS011;3252;52.540;13.290;2022-10-16T01:12:42;1.80;;;1.00;;
6438;SDS011;3252;52.540;13.290;2022-10-16T01:14:51;2.30;;;1.50;;
6438;SDS011;3252;52.540;13.290;2022-10-16T01:16:58;1.73;;;1.00;;
6438;SDS011;3252;52.540;13.290;2022-10-16T01:19:08;1.30;;;1.10;;
6438;SDS011;3252;52.540;13.290;2022-10-16T01:21:14;3.97;;;1.50;;
6438;SDS011;3252;52.540;13.290;2022-10-16T01:23:28;2.07;;;1.23;;
6438;SDS011;3252;52.540;13.290;2022-10-16T01:25:50;2.40;;;1.30;;
6438;SDS011;3252;52.540;13.290;2022-10-16T01:28:09;2.40;;;1.20;;
6438;SDS011;3252;52.540;13.290;2022-10-16T01:30:15;2.57;;;1.20;;
6438;SDS011;3252;52.540;13.290;2022-10-16T01:32:23;1.63;;;1.20;;
6438;SDS011;3252;52.540;13.290;2022-10-16T01:34:31;2.17;;;1.40;;
6438;SDS011;3252;52.540;13.290;2022-10-16T01:36:37;1.67;;;0.97;;
6438;SDS011;3252;52.540;13.290;2022-10-16T01:38:43;1.83;;;1.10;;
6438;SDS011;3252;52.540;13.290;2022-10-16T01:40:49;3.87;;;1.23;;
6438;SDS011;3252;52.540;13.290;2022-10-16T01:43:01;1.33;;;0.90;;
6438;SDS011;3252;52.540;13.290;2022-10-16T01:45:08;6.77;;;1.20;;
6438;SDS011;3252;52.540;13.290;2022-10-16T01:47:14;1.93;;;1.10;;
6438;SDS011;3252;52.540;13.290;2022-10-16T01:49:18;1.50;;;1.10;;
6438;SDS011;3252;52.540;13.290;2022-10-16T01:51:22;1.20;;;1.10;;
6438;SDS011;3252;52.540;13.290;2022-10-16T01:53:25;2.73;;;1.37;;
6438;SDS011;3252;52.540;13.290;2022-10-16T01:55:28;1.20;;;1.10;;
6438;SDS011;3252;52.540;13.290;2022-10-16T01:57:33;5.77;;;1.10;;
6438;SDS011;3252;52.540;13.290;2022-10-16T01:59:40;2.87;;;1.27;;
6438;SDS011;3252;52.540;13.290;2022-10-16T02:01:47;2.57;;;1.20;;
6438;SDS011;3252;52.540;13.290;2022-10-16T02:03:51;3.20;;;1.20;;
6438;SDS011;3252;52.540;13.290;2022-10-16T02:05:57;2.23;;;1.30;;
6438;SDS011;3252;52.540;13.290;2022-10-16T02:07:59;4.57;;;1.10;;
6438;SDS011;3252;52.540;13.290;2022-10-16T02:10:01;1.60;;;1.00;;
6438;SDS011;3252;52.540;13.290;2022-10-16T02:12:06;5.07;;;1.13;;
6438;SDS011;3252;52.540;13.290;2022-10-16T02:14:13;2.20;;;1.20;;
6438;SDS011;3252;52.540;13.290;2022-10-16T02:16:14;7.40;;;1.27;;
6438;SDS011;3252;52.540;13.290;2022-10-16T02:18:18;1.57;;;1.20;;
6438;SDS011;3252;52.540;13.290;2022-10-16T02:20:22;1.77;;;1.03;;
6438;SDS011;3252;52.540;13.290;2022-10-16T02:22:30;1.33;;;1.10;;
6438;SDS011;3252;52.540;13.290;2022-10-16T02:24:36;1.83;;;1.10;;
6438;SDS011;3252;52.540;13.290;2022-10-16T02:26:45;2.13;;;1.00;;
6438;SDS011;3252;52.540;13.290;2022-10-16T02:28:53;2.03;;;1.30;;
6438;SDS011;3252;52.540;13.290;2022-10-16T02:30:58;1.70;;;0.90;;
6438;SDS011;3252;52.540;13.290;2022-10-16T02:33:03;3.93;;;1.10;;
6438;SDS011;3252;52.540;13.290;2022-10-16T02:35:11;3.63;;;1.20;;
6438;SDS011;3252;52.540;13.290;2022-10-16T02:37:13;1.57;;;1.30;;
6438;SDS011;3252;52.540;13.290;2022-10-16T02:39:17;1.57;;;1.10;;
6438;SDS011;3252;52.540;13.290;2022-10-16T02:41:21;2.77;;;1.20;;
6438;SDS011;3252;52.540;13.290;2022-10-16T02:43:24;2.00;;;1.10;;
6438;SDS011;3252;52.540;13.290;2022-10-16T02:45:27;1.80;;;1.00;;
6438;SDS011;3252;52.540;13.290;2022-10-16T02:47:29;3.00;;;1.20;;
6438;SDS011;3252;52.540;13.290;2022-10-16T02:49:31;1.87;;;1.00;;
6438;SDS011;3252;52.540;13.290;2022-10-16T02:51:35;2.30;;;1.00;;
6438;SDS011;3252;52.540;13.290;2022-10-16T02:53:37;1.27;;;0.83;;
6438;SDS011;3252;52.540;13.290;2022-10-16T02:55:39;3.07;;;1.07;;
6438;SDS011;3252;52.540;13.290;2022-10-16T02:57:41;3.93;;;1.30;;
6438;SDS011;3252;52.540;13.290;2022-10-16T02:59:43;5.00;;;0.90;;
6438;SDS011;3252;52.540;13.290;2022-10-16T03:01:45;2.43;;;1.13;;
6438;SDS011;3252;52.540;13.290;2022-10-16T03:03:48;1.90;;;1.10;;
6438;SDS011;3252;52.540;13.290;2022-10-16T03:05:50;2.13;;;1.00;;
6438;SDS011;3252;52.540;13.290;2022-10-16T03:07:53;3.30;;;1.10;;
6438;SDS011;3252;52.540;13.290;2022-10-16T03:09:55;3.00;;;1.07;;
6438;SDS011;3252;52.540;13.290;2022-10-16T03:12:00;2.73;;;1.20;;
6438;SDS011;3252;52.540;13.290;2022-10-16T03:14:02;2.63;;;1.00;;
6438;SDS011;3252;52.540;13.290;2022-10-16T03:16:04;1.77;;;1.10;;
6438;SDS011;3252;52.540;13.290;2022-10-16T03:18:06;2.10;;;1.33;;
6438;SDS011;3252;52.540;13.290;2022-10-16T03:20:08;4.47;;;1.50;;
6438;SDS011;3252;52.540;13.290;2022-10-16T03:22:11;2.00;;;1.50;;
6438;SDS011;3252;52.540;13.290;2022-10-16T03:24:14;1.67;;;1.27;;
6438;SDS011;3252;52.540;13.290;2022-10-16T03:26:16;2.90;;;1.60;;
6438;SDS011;3252;52.540;13.290;2022-10-16T03:28:18;1.40;;;1.20;;
6438;SDS011;3252;52.540;13.290;2022-10-16T03:30:20;2.70;;;1.30;;
6438;SDS011;3252;52.540;13.290;2022-10-16T03:32:22;4.67;;;1.30;;
6438;SDS011;3252;52.540;13.290;2022-10-16T03:34:25;2.40;;;1.50;;
6438;SDS011;3252;52.540;13.290;2022-10-16T03:36:28;1.73;;;1.03;;
6438;SDS011;3252;52.540;13.290;2022-10-16T03:38:30;1.87;;;1.10;;
6438;SDS011;3252;52.540;13.290;2022-10-16T03:40:33;2.93;;;1.13;;
6438;SDS011;3252;52.540;13.290;2022-10-16T03:42:36;3.37;;;1.30;;
6438;SDS011;3252;52.540;13.290;2022-10-16T03:44:38;2.90;;;1.30;;
6438;SDS011;3252;52.540;13.290;2022-10-16T03:46:40;1.83;;;1.10;;
6438;SDS011;3252;52.540;13.290;2022-10-16T03:48:42;2.70;;;1.20;;
6438;SDS011;3252;52.540;13.290;2022-10-16T03:50:44;3.83;;;1.27;;
6438;SDS011;3252;52.540;13.290;2022-10-16T03:52:46;2.87;;;1.70;;
6438;SDS011;3252;52.540;13.290;2022-10-16T03:54:48;7.47;;;5.93;;
6438;SDS011;3252;52.540;13.290;2022-10-16T03:56:52;7.30;;;4.63;;
6438;SDS011;3252;52.540;13.290;2022-10-16T03:58:54;3.70;;;3.00;;
6438;SDS011;3252;52.540;13.290;2022-10-16T04:00:57;2.40;;;1.40;;
6438;SDS011;3252;52.540;13.290;2022-10-16T04:02:59;5.27;;;1.60;;
6438;SDS011;3252;52.540;13.290;2022-10-16T04:05:01;3.90;;;1.40;;
6438;SDS011;3252;52.540;13.290;2022-10-16T04:07:04;2.40;;;1.50;;
6438;SDS011;3252;52.540;13.290;2022-10-16T04:09:06;3.53;;;1.27;;
6438;SDS011;3252;52.540;13.290;2022-10-16T04:11:08;2.37;;;1.30;;
6438;SDS011;3252;52.540;13.290;2022-10-16T04:13:12;1.93;;;1.30;;
6438;SDS011;3252;52.540;13.290;2022-10-16T04:15:14;4.13;;;1.30;;
6438;SDS011;3252;52.540;13.290;2022-10-16T04:17:16;1.57;;;1.20;;
6438;SDS011;3252;52.540;13.290;2022-10-16T04:19:18;1.57;;;1.23;;
6438;SDS011;3252;52.540;13.290;2022-10-16T04:21:20;4.77;;;1.33;;
6438;SDS011;3252;52.540;13.290;2022-10-16T04:23:22;4.03;;;1.30;;
6438;SDS011;3252;52.540;13.290;2022-10-16T04:25:24;2.43;;;1.43;;
6438;SDS011;3252;52.540;13.290;2022-10-16T04:27:26;2.27;;;1.30;;
6438;SDS011;3252;52.540;13.290;2022-10-16T04:29:30;2.47;;;1.50;;
6438;SDS011;3252;52.540;13.290;2022-10-16T04:31:31;1.97;;;1.37;;
6438;SDS011;3252;52.540;13.290;2022-10-16T04:33:34;2.43;;;1.40;;
6438;SDS011;3252;52.540;13.290;2022-10-16T04:35:36;2.33;;;1.60;;
6438;SDS011;3252;52.540;13.290;2022-10-16T04:37:37;3.23;;;1.43;;
6438;SDS011;3252;52.540;13.290;2022-10-16T04:39:39;1.80;;;1.43;;
6438;SDS011;3252;52.540;13.290;2022-10-16T04:41:42;1.93;;;1.53;;
6438;SDS011;3252;52.540;13.290;2022-10-16T04:43:44;5.37;;;1.57;;
6438;SDS011;3252;52.540;13.290;2022-10-16T04:45:47;2.10;;;1.40;;
6438;SDS011;3252;52.540;13.290;2022-10-16T04:47:50;4.37;;;1.70;;
6438;SDS011;3252;52.540;13.290;2022-10-16T04:49:52;2.80;;;1.30;;
6438;SDS011;3252;52.540;13.290;2022-10-16T04:51:54;1.60;;;1.30;;
6438;SDS011;3252;52.540;13.290;2022-10-16T04:53:56;2.53;;;1.30;;
6438;SDS011;3252;52.540;13.290;2022-10-16T04:55:58;3.80;;;1.40;;
6438;SDS011;3252;52.540;13.290;2022-10-16T04:58:00;2.10;;;1.50;;
6438;SDS011;3252;52.540;13.290;2022-10-16T05:00:02;3.00;;;1.30;;
6438;SDS011;3252;52.540;13.290;2022-10-16T05:02:06;2.20;;;1.40;;
6438;SDS011;3252;52.540;13.290;2022-10-16T05:04:08;2.57;;;1.37;;
6438;SDS011;3252;52.540;13.290;2022-10-16T05:06:10;3.23;;;1.50;;
6438;SDS011;3252;52.540;13.290;2022-10-16T05:08:13;1.73;;;1.33;;
6438;SDS011;3252;52.540;13.290;2022-10-16T05:10:15;2.27;;;1.47;;
6438;SDS011;3252;52.540;13.290;2022-10-16T05:12:18;3.27;;;1.40;;
6438;SDS011;3252;52.540;13.290;2022-10-16T05:14:20;2.63;;;1.57;;
6438;SDS011;3252;52.540;13.290;2022-10-16T05:16:22;2.53;;;1.50;;
6438;SDS011;3252;52.540;13.290;2022-10-16T05:18:25;3.87;;;1.60;;
6438;SDS011;3252;52.540;13.290;2022-10-16T05:20:28;3.43;;;1.40;;
6438;SDS011;3252;52.540;13.290;2022-10-16T05:22:29;2.17;;;1.30;;
6438;SDS011;3252;52.540;13.290;2022-10-16T05:24:31;2.70;;;1.50;;
6438;SDS011;3252;52.540;13.290;2022-10-16T05:26:33;3.53;;;1.37;;
6438;SDS011;3252;52.540;13.290;2022-10-16T05:28:35;3.00;;;1.63;;
6438;SDS011;3252;52.540;13.290;2022-10-16T05:30:38;2.87;;;1.87;;
6438;SDS011;3252;52.540;13.290;2022-10-16T05:32:40;3.70;;;1.70;;
6438;SDS011;3252;52.540;13.290;2022-10-16T05:34:43;3.87;;;1.50;;
6438;SDS011;3252;52.540;13.290;2022-10-16T05:36:46;2.23;;;1.37;;
6438;SDS011;3252;52.540;13.290;2022-10-16T05:38:49;3.20;;;1.60;;
6438;SDS011;3252;52.540;13.290;2022-10-16T05:40:52;3.97;;;1.70;;
6438;SDS011;3252;52.540;13.290;2022-10-16T05:42:54;2.53;;;1.80;;
6438;SDS011;3252;52.540;13.290;2022-10-16T05:44:57;3.27;;;1.30;;
6438;SDS011;3252;52.540;13.290;2022-10-16T05:46:59;3.13;;;1.60;;
6438;SDS011;3252;52.540;13.290;2022-10-16T05:49:01;2.17;;;1.37;;
6438;SDS011;3252;52.540;13.290;2022-10-16T05:51:05;3.60;;;1.53;;
6438;SDS011;3252;52.540;13.290;2022-10-16T05:53:08;4.63;;;1.60;;
6438;SDS011;3252;52.540;13.290;2022-10-16T05:55:11;2.53;;;1.40;;
6438;SDS011;3252;52.540;13.290;2022-10-16T05:57:13;2.03;;;1.33;;
6438;SDS011;3252;52.540;13.290;2022-10-16T05:59:15;3.10;;;1.70;;
6438;SDS011;3252;52.540;13.290;2022-10-16T06:01:18;3.23;;;1.60;;
6438;SDS011;3252;52.540;13.290;2022-10-16T06:03:24;3.03;;;1.57;;
6438;SDS011;3252;52.540;13.290;2022-10-16T06:05:26;4.23;;;1.30;;
6438;SDS011;3252;52.540;13.290;2022-10-16T06:07:33;1.90;;;1.40;;
6438;SDS011;3252;52.540;13.290;2022-10-16T06:09:35;5.60;;;1.57;;
6438;SDS011;3252;52.540;13.290;2022-10-16T06:11:37;2.10;;;1.40;;
6438;SDS011;3252;52.540;13.290;2022-10-16T06:13:39;2.40;;;1.50;;
6438;SDS011;3252;52.540;13.290;2022-10-16T06:15:42;3.53;;;1.53;;
6438;SDS011;3252;52.540;13.290;2022-10-16T06:17:45;3.43;;;1.47;;
6438;SDS011;3252;52.540;13.290;2022-10-16T06:19:48;4.80;;;1.60;;
6438;SDS011;3252;52.540;13.290;2022-10-16T06:21:50;3.50;;;1.60;;
6438;SDS011;3252;52.540;13.290;2022-10-16T06:23:54;3.03;;;1.80;;
6438;SDS011;3252;52.540;13.290;2022-10-16T06:26:03;3.63;;;1.80;;
6438;SDS011;3252;52.540;13.290;2022-10-16T06:28:06;4.20;;;1.70;;
6438;SDS011;3252;52.540;13.290;2022-10-16T06:30:08;2.80;;;1.50;;
6438;SDS011;3252;52.540;13.290;2022-10-16T06:32:11;6.53;;;1.67;;
6438;SDS011;3252;52.540;13.290;2022-10-16T06:34:14;4.07;;;1.83;;
6438;SDS011;3252;52.540;13.290;2022-10-16T06:36:16;3.90;;;1.67;;
6438;SDS011;3252;52.540;13.290;2022-10-16T06:38:19;1.90;;;1.40;;
6438;SDS011;3252;52.540;13.290;2022-10-16T06:40:22;5.23;;;1.50;;
6438;SDS011;3252;52.540;13.290;2022-10-16T06:42:24;4.03;;;1.50;;
6438;SDS011;3252;52.540;13.290;2022-10-16T06:44:26;4.33;;;1.30;;
6438;SDS011;3252;52.540;13.290;2022-10-16T06:46:28;2.37;;;1.37;;
6438;SDS011;3252;52.540;13.290;2022-10-16T06:48:30;4.87;;;1.80;;
6438;SDS011;3252;52.540;13.290;2022-10-16T06:50:32;3.80;;;2.10;;
6438;SDS011;3252;52.540;13.290;2022-10-16T06:52:34;2.70;;;1.73;;
6438;SDS011;3252;52.540;13.290;2022-10-16T06:54:36;3.70;;;3.13;;
6438;SDS011;3252;52.540;13.290;2022-10-16T06:56:39;5.07;;;2.20;;
6438;SDS011;3252;52.540;13.290;2022-10-16T06:58:41;5.13;;;1.90;;
6438;SDS011;3252;52.540;13.290;2022-10-16T07:00:44;5.83;;;1.87;;
6438;SDS011;3252;52.540;13.290;2022-10-16T07:02:46;4.47;;;3.40;;
6438;SDS011;3252;52.540;13.290;2022-10-16T07:04:48;6.57;;;3.53;;
6438;SDS011;3252;52.540;13.290;2022-10-16T07:06:50;13.33;;;10.67;;
6438;SDS011;3252;52.540;13.290;2022-10-16T07:08:52;5.60;;;2.00;;
6438;SDS011;3252;52.540;13.290;2022-10-16T07:10:58;2.63;;;1.70;;
6438;SDS011;3252;52.540;13.290;2022-10-16T07:13:02;4.47;;;1.80;;
6438;SDS011;3252;52.540;13.290;2022-10-16T07:15:04;2.60;;;2.10;;
6438;SDS011;3252;52.540;13.290;2022-10-16T07:17:07;2.80;;;2.10;;
6438;SDS011;3252;52.540;13.290;2022-10-16T07:19:09;3.27;;;1.70;;
6438;SDS011;3252;52.540;13.290;2022-10-16T07:21:13;2.73;;;1.47;;
6438;SDS011;3252;52.540;13.290;2022-10-16T07:23:16;2.33;;;1.40;;
6438;SDS011;3252;52.540;13.290;2022-10-16T07:25:18;2.93;;;1.43;;
6438;SDS011;3252;52.540;13.290;2022-10-16T07:27:20;3.07;;;1.43;;
6438;SDS011;3252;52.540;13.290;2022-10-16T07:29:25;4.07;;;1.70;;
6438;SDS011;3252;52.540;13.290;2022-10-16T07:31:28;1.73;;;1.27;;
6438;SDS011;3252;52.540;13.290;2022-10-16T07:33:30;3.23;;;2.37;;
6438;SDS011;3252;52.540;13.290;2022-10-16T07:35:33;6.50;;;3.00;;
6438;SDS011;3252;52.540;13.290;2022-10-16T07:37:35;7.67;;;4.10;;
6438;SDS011;3252;52.540;13.290;2022-10-16T07:39:37;4.03;;;2.33;;
6438;SDS011;3252;52.540;13.290;2022-10-16T07:41:39;14.63;;;11.50;;
6438;SDS011;3252;52.540;13.290;2022-10-16T07:43:45;9.47;;;5.93;;
6438;SDS011;3252;52.540;13.290;2022-10-16T07:45:50;4.27;;;3.17;;
6438;SDS011;3252;52.540;13.290;2022-10-16T07:47:52;4.00;;;2.23;;
6438;SDS011;3252;52.540;13.290;2022-10-16T07:49:54;2.77;;;1.70;;
6438;SDS011;3252;52.540;13.290;2022-10-16T07:51:56;4.13;;;1.90;;
6438;SDS011;3252;52.540;13.290;2022-10-16T07:53:58;2.87;;;1.53;;
6438;SDS011;3252;52.540;13.290;2022-10-16T07:56:00;1.53;;;1.27;;
6438;SDS011;3252;52.540;13.290;2022-10-16T07:58:04;2.43;;;1.60;;
6438;SDS011;3252;52.540;13.290;2022-10-16T08:00:07;4.10;;;2.90;;
6438;SDS011;3252;52.540;13.290;2022-10-16T08:02:14;6.57;;;4.50;;
6438;SDS011;3252;52.540;13.290;2022-10-16T08:04:17;7.27;;;2.97;;
6438;SDS011;3252;52.540;13.290;2022-10-16T08:06:19;3.07;;;1.80;;
6438;SDS011;3252;52.540;13.290;2022-10-16T08:08:22;2.07;;;1.33;;
6438;SDS011;3252;52.540;13.290;2022-10-16T08:10:25;3.70;;;1.30;;
6438;SDS011;3252;52.540;13.290;2022-10-16T08:12:28;3.67;;;1.37;;
6438;SDS011;3252;52.540;13.290;2022-10-16T08:14:30;3.50;;;2.70;;
6438;SDS011;3252;52.540;13.290;2022-10-16T08:16:32;861.73;;;606.63;;
6438;SDS011;3252;52.540;13.290;2022-10-16T08:18:35;1319.97;;;787.23;;
6438;SDS011;3252;52.540;13.290;2022-10-16T08:20:37;1810.13;;;949.53;;
6438;SDS011;3252;52.540;13.290;2022-10-16T08:22:40;1970.20;;;970.23;;
6438;SDS011;3252;52.540;13.290;2022-10-16T08:24:42;7.60;;;4.30;;
6438;SDS011;3252;52.540;13.290;2022-10-16T08:26:43;784.47;;;538.37;;
6438;SDS011;3252;52.540;13.290;2022-10-16T08:28:49;86.13;;;42.30;;
6438;SDS011;3252;52.540;13.290;2022-10-16T08:30:50;4.77;;;1.60;;
6438;SDS011;3252;52.540;13.290;2022-10-16T08:32:53;6.43;;;4.23;;
6438;SDS011;3252;52.540;13.290;2022-10-16T08:34:56;3.73;;;1.10;;
6438;SDS011;3252;52.540;13.290;2022-10-16T08:36:58;2.80;;;1.27;;
6438;SDS011;3252;52.540;13.290;2022-10-16T08:39:00;3.07;;;1.10;;
6438;SDS011;3252;52.540;13.290;2022-10-16T08:41:09;2.37;;;1.27;;
6438;SDS011;3252;52.540;13.290;2022-10-16T08:43:33;5.90;;;1.10;;
6438;SDS011;3252;52.540;13.290;2022-10-16T08:45:49;3.30;;;1.40;;
6438;SDS011;3252;52.540;13.290;2022-10-16T08:48:09;4.20;;;1.20;;
6438;SDS011;3252;52.540;13.290;2022-10-16T08:50:22;5.70;;;4.43;;
6438;SDS011;3252;52.540;13.290;2022-10-16T08:52:29;3.70;;;2.10;;
6438;SDS011;3252;52.540;13.290;2022-10-16T08:54:36;3.67;;;2.60;;
6438;SDS011;3252;52.540;13.290;2022-10-16T08:56:42;4.80;;;2.57;;
6438;SDS011;3252;52.540;13.290;2022-10-16T08:58:44;6.13;;;1.10;;
6438;SDS011;3252;52.540;13.290;2022-10-16T09:00:49;7.23;;;5.27;;
6438;SDS011;3252;52.540;13.290;2022-10-16T09:02:56;3.63;;;1.23;;
6438;SDS011;3252;52.540;13.290;2022-10-16T09:05:22;5.67;;;1.03;;
6438;SDS011;3252;52.540;13.290;2022-10-16T09:07:37;3.83;;;2.70;;
6438;SDS011;3252;52.540;13.290;2022-10-16T09:09:51;4.83;;;3.57;;
6438;SDS011;3252;52.540;13.290;2022-10-16T09:12:04;1.63;;;0.93;;
6438;SDS011;3252;52.540;13.290;2022-10-16T09:14:15;2.27;;;1.23;;
6438;SDS011;3252;52.540;13.290;2022-10-16T09:16:32;1.90;;;1.00;;
6438;SDS011;3252;52.540;13.290;2022-10-16T09:18:39;1.53;;;1.00;;
6438;SDS011;3252;52.540;13.290;2022-10-16T09:20:49;1.93;;;0.90;;
6438;SDS011;3252;52.540;13.290;2022-10-16T09:23:00;1.97;;;0.90;;
6438;SDS011;3252;52.540;13.290;2022-10-16T09:25:14;3.90;;;1.00;;
6438;SDS011;3252;52.540;13.290;2022-10-16T09:27:18;6.40;;;3.30;;
6438;SDS011;3252;52.540;13.290;2022-10-16T09:29:20;4.00;;;2.47;;
6438;SDS011;3252;52.540;13.290;2022-10-16T09:31:25;6.77;;;5.03;;
6438;SDS011;3252;52.540;13.290;2022-10-16T09:33:28;15.87;;;10.70;;
6438;SDS011;3252;52.540;13.290;2022-10-16T09:35:35;4.07;;;1.47;;
6438;SDS011;3252;52.540;13.290;2022-10-16T09:37:41;2.80;;;1.10;;
6438;SDS011;3252;52.540;13.290;2022-10-16T09:39:46;2.27;;;0.93;;
6438;SDS011;3252;52.540;13.290;2022-10-16T09:41:49;2.87;;;1.00;;
6438;SDS011;3252;52.540;13.290;2022-10-16T09:43:52;3.20;;;1.00;;
6438;SDS011;3252;52.540;13.290;2022-10-16T09:45:57;1.53;;;1.13;;
6438;SDS011;3252;52.540;13.290;2022-10-16T09:48:01;5.33;;;2.10;;
6438;SDS011;3252;52.540;13.290;2022-10-16T09:50:19;4.97;;;1.33;;
6438;SDS011;3252;52.540;13.290;2022-10-16T09:52:23;1.30;;;0.83;;
6438;SDS011;3252;52.540;13.290;2022-10-16T09:54:27;2.03;;;0.93;;
6438;SDS011;3252;52.540;13.290;2022-10-16T09:56:29;1.90;;;0.93;;
6438;SDS011;3252;52.540;13.290;2022-10-16T09:58:33;1.90;;;1.00;;
6438;SDS011;3252;52.540;13.290;2022-10-16T10:00:35;1.57;;;0.90;;
6438;SDS011;3252;52.540;13.290;2022-10-16T10:02:37;4.10;;;1.13;;
6438;SDS011;3252;52.540;13.290;2022-10-16T10:04:40;3.93;;;1.20;;
6438;SDS011;3252;52.540;13.290;2022-10-16T10:06:46;3.53;;;1.30;;
6438;SDS011;3252;52.540;13.290;2022-10-16T10:08:53;4.37;;;3.20;;
6438;SDS011;3252;52.540;13.290;2022-10-16T10:11:02;2.60;;;1.53;;
6438;SDS011;3252;52.540;13.290;2022-10-16T10:13:14;1.77;;;1.40;;
6438;SDS011;3252;52.540;13.290;2022-10-16T10:15:21;1.77;;;0.80;;
6438;SDS011;3252;52.540;13.290;2022-10-16T10:17:24;6.10;;;1.07;;
6438;SDS011;3252;52.540;13.290;2022-10-16T10:19:28;4.43;;;1.20;;
6438;SDS011;3252;52.540;13.290;2022-10-16T10:21:32;0.97;;;0.90;;
6438;SDS011;3252;52.540;13.290;2022-10-16T10:23:35;3.63;;;0.90;;
6438;SDS011;3252;52.540;13.290;2022-10-16T10:25:39;0.80;;;0.70;;
6438;SDS011;3252;52.540;13.290;2022-10-16T10:27:56;1.80;;;0.93;;
6438;SDS011;3252;52.540;13.290;2022-10-16T10:30:08;2.97;;;0.83;;
6438;SDS011;3252;52.540;13.290;2022-10-16T10:32:19;1.93;;;0.97;;
6438;SDS011;3252;52.540;13.290;2022-10-16T10:34:34;3.53;;;0.80;;
6438;SDS011;3252;52.540;13.290;2022-10-16T10:36:51;2.40;;;1.10;;
6438;SDS011;3252;52.540;13.290;2022-10-16T10:38:59;2.93;;;0.70;;
6438;SDS011;3252;52.540;13.290;2022-10-16T10:41:08;4.53;;;2.23;;
6438;SDS011;3252;52.540;13.290;2022-10-16T10:43:22;4.83;;;3.60;;
6438;SDS011;3252;52.540;13.290;2022-10-16T10:45:37;6.33;;;1.60;;
6438;SDS011;3252;52.540;13.290;2022-10-16T10:47:47;9.30;;;4.57;;
6438;SDS011;3252;52.540;13.290;2022-10-16T10:50:02;1.07;;;0.97;;
6438;SDS011;3252;52.540;13.290;2022-10-16T10:52:22;4.80;;;1.40;;
6438;SDS011;3252;52.540;13.290;2022-10-16T10:54:36;3.40;;;1.00;;
6438;SDS011;3252;52.540;13.290;2022-10-16T10:56:45;4.33;;;1.00;;
6438;SDS011;3252;52.540;13.290;2022-10-16T10:59:07;4.32;;;1.00;;
6438;SDS011;3252;52.540;13.290;2022-10-16T11:01:21;2.42;;;1.00;;
6438;SDS011;3252;52.540;13.290;2022-10-16T11:03:35;1.48;;;1.02;;
6438;SDS011;3252;52.540;13.290;2022-10-16T11:05:47;1.90;;;0.90;;
6438;SDS011;3252;52.540;13.290;2022-10-16T11:07:55;2.53;;;0.98;;
6438;SDS011;3252;52.540;13.290;2022-10-16T11:10:02;4.18;;;2.15;;
6438;SDS011;3252;52.540;13.290;2022-10-16T11:12:11;6.85;;;4.80;;
6438;SDS011;3252;52.540;13.290;2022-10-16T11:14:21;3.80;;;2.83;;
6438;SDS011;3252;52.540;13.290;2022-10-16T11:16:27;2.28;;;1.10;;
6438;SDS011;3252;52.540;13.290;2022-10-16T11:18:33;5.05;;;0.80;;
6438;SDS011;3252;52.540;13.290;2022-10-16T11:20:47;4.53;;;0.90;;
6438;SDS011;3252;52.540;13.290;2022-10-16T11:23:00;2.47;;;0.90;;
6438;SDS011;3252;52.540;13.290;2022-10-16T11:25:13;3.58;;;0.73;;
6438;SDS011;3252;52.540;13.290;2022-10-16T11:27:18;3.10;;;0.90;;
6438;SDS011;3252;52.540;13.290;2022-10-16T11:29:26;0.98;;;0.60;;
6438;SDS011;3252;52.540;13.290;2022-10-16T11:31:32;1.33;;;0.95;;
6438;SDS011;3252;52.540;13.290;2022-10-16T11:33:39;1.88;;;0.80;;
6438;SDS011;3252;52.540;13.290;2022-10-16T11:35:47;0.98;;;0.60;;
6438;SDS011;3252;52.540;13.290;2022-10-16T11:37:52;3.90;;;0.77;;
6438;SDS011;3252;52.540;13.290;2022-10-16T11:39:58;1.45;;;1.00;;
6438;SDS011;3252;52.540;13.290;2022-10-16T11:42:11;2.67;;;1.00;;
6438;SDS011;3252;52.540;13.290;2022-10-16T11:44:21;2.88;;;0.90;;
6438;SDS011;3252;52.540;13.290;2022-10-16T11:46:37;3.25;;;0.80;;
6438;SDS011;3252;52.540;13.290;2022-10-16T11:48:43;1.77;;;0.80;;
6438;SDS011;3252;52.540;13.290;2022-10-16T11:50:50;4.03;;;0.93;;
6438;SDS011;3252;52.540;13.290;2022-10-16T11:52:55;2.40;;;0.95;;
6438;SDS011;3252;52.540;13.290;2022-10-16T11:55:05;9.48;;;8.50;;
6438;SDS011;3252;52.540;13.290;2022-10-16T11:57:16;7.72;;;3.53;;
6438;SDS011;3252;52.540;13.290;2022-10-16T11:59:23;3.30;;;1.33;;
6438;SDS011;3252;52.540;13.290;2022-10-16T12:01:33;1.75;;;1.02;;
6438;SDS011;3252;52.540;13.290;2022-10-16T12:03:42;1.85;;;0.93;;
6438;SDS011;3252;52.540;13.290;2022-10-16T12:05:52;2.03;;;0.82;;
6438;SDS011;3252;52.540;13.290;2022-10-16T12:08:06;8.43;;;2.40;;
6438;SDS011;3252;52.540;13.290;2022-10-16T12:10:11;5.03;;;2.65;;
6438;SDS011;3252;52.540;13.290;2022-10-16T12:12:23;1.63;;;1.10;;
6438;SDS011;3252;52.540;13.290;2022-10-16T12:14:36;1.45;;;0.93;;
6438;SDS011;3252;52.540;13.290;2022-10-16T12:16:50;5.28;;;2.58;;
6438;SDS011;3252;52.540;13.290;2022-10-16T12:19:03;1.98;;;1.77;;
6438;SDS011;3252;52.540;13.290;2022-10-16T12:21:13;4.32;;;2.05;;
6438;SDS011;3252;52.540;13.290;2022-10-16T12:23:19;8.23;;;1.30;;
6438;SDS011;3252;52.540;13.290;2022-10-16T12:25:23;1.45;;;0.95;;
6438;SDS011;3252;52.540;13.290;2022-10-16T12:27:29;0.70;;;0.70;;
6438;SDS011;3252;52.540;13.290;2022-10-16T12:29:34;3.55;;;1.10;;
6438;SDS011;3252;52.540;13.290;2022-10-16T12:31:39;2.38;;;1.15;;
6438;SDS011;3252;52.540;13.290;2022-10-16T12:33:54;1.85;;;0.90;;
6438;SDS011;3252;52.540;13.290;2022-10-16T12:35:59;1.77;;;1.23;;
6438;SDS011;3252;52.540;13.290;2022-10-16T12:38:04;2.17;;;0.93;;
6438;SDS011;3252;52.540;13.290;2022-10-16T12:40:23;2.35;;;1.50;;
6438;SDS011;3252;52.540;13.290;2022-10-16T12:42:32;3.28;;;2.47;;
6438;SDS011;3252;52.540;13.290;2022-10-16T12:44:35;2.42;;;1.45;;